Bushy Park, Australia
Current Conditions -  °F | °C
As of 2:00 PM on Tuesday 23 Dec 2014 (Local Time) from YMHB Reporting Station
Rain Showers Rain Showers  
Wind Chill: 70°   Ceiling: 11000
Heat Index: 70°   Visibility: 6mi
Dew Point: 61°   Wind: 17mph
Humidity: 73%   Direction: 170°S
Pressure: 29.62"   Gusts: NA
Location:  42.7°S, 146.88°E
Report Text: YMHB 230300Z 17015KT 9999 VCSH FEW009 SCT063 BKN110 21/16 Q1003
Loading
Personal Weather Stations






























Interactive Weather Map New forecast layout! Learn more

10-Day Weather Forecast

Advertisements
Track Severe Weather on mobile